Time;durP1;ratioP1;P1;durP2;ratioP2;P2;SDS_P1;SDS_P2;PMS_P1;PMS_P2;Temp;Humidity;BMP_temperature;BMP_pressure;BME280_temperature;BME280_humidity;BME280_pressure;Samples;Min_cycle;Max_cycle;Signal;HPM_P1;HPM_P2
2023/07/30 00:01:19;;;;;;;25.13;7.10;;;;;;;;;;5010017;28;20046;-72
2023/07/30 00:03:45;;;;;;;30.85;7.72;;;;;;;;;;5006065;28;20103;-72
2023/07/30 00:06:10;;;;;;;25.20;7.57;;;;;;;;;;5007623;28;20534;-73
2023/07/30 00:08:37;;;;;;;19.75;6.82;;;;;;;;;;5009797;28;20049;-73
2023/07/30 00:11:03;;;;;;;24.08;7.82;;;;;;;;;;5006529;28;20053;-73
2023/07/30 00:13:29;;;;;;;22.90;7.25;;;;;;;;;;5006520;28;20136;-73
2023/07/30 00:15:55;;;;;;;25.40;7.45;;;;;;;;;;5005044;28;20057;-73
2023/07/30 00:18:21;;;;;;;21.60;6.32;;;;;;;;;;5007161;28;20050;-72
2023/07/30 00:20:47;;;;;;;25.33;6.90;;;;;;;;;;5013376;28;20124;-73
2023/07/30 00:23:13;;;;;;;23.80;7.03;;;;;;;;;;5009619;28;20057;-73
2023/07/30 00:25:39;;;;;;;23.13;7.13;;;;;;;;;;5012411;28;20045;-72
2023/07/30 00:28:05;;;;;;;28.08;7.20;;;;;;;;;;5008099;28;20184;-72
2023/07/30 00:30:31;;;;;;;26.45;6.95;;;;;;;;;;5010386;28;20080;-72
2023/07/30 00:32:57;;;;;;;28.70;8.15;;;;;;;;;;5011317;28;20072;-72
2023/07/30 00:35:23;;;;;;;21.65;7.57;;;;;;;;;;5011954;28;20421;-72
2023/07/30 00:37:49;;;;;;;20.95;5.78;;;;;;;;;;5012034;28;20048;-72
2023/07/30 00:40:15;;;;;;;21.15;6.55;;;;;;;;;;5009873;28;20070;-73
2023/07/30 00:42:41;;;;;;;23.33;7.13;;;;;;;;;;5005834;28;20129;-73
2023/07/30 00:45:08;;;;;;;21.00;6.63;;;;;;;;;;4997388;28;20065;-72
2023/07/30 00:47:34;;;;;;;29.65;7.07;;;;;;;;;;4997208;28;20464;-72
2023/07/30 00:50:00;;;;;;;24.80;6.45;;;;;;;;;;5005950;28;20042;-73
2023/07/30 00:52:26;;;;;;;21.52;7.47;;;;;;;;;;5002811;28;20052;-72
2023/07/30 00:54:52;;;;;;;20.52;7.13;;;;;;;;;;5002960;28;20494;-72
2023/07/30 00:57:19;;;;;;;22.35;6.60;;;;;;;;;;4999670;28;20074;-73
2023/07/30 00:59:45;;;;;;;23.33;7.20;;;;;;;;;;5009542;28;20386;-73
2023/07/30 01:02:12;;;;;;;19.23;6.95;;;;;;;;;;5001144;28;20046;-73
2023/07/30 01:04:39;;;;;;;27.63;6.82;;;;;;;;;;5003716;28;20072;-72
2023/07/30 01:07:05;;;;;;;27.25;7.38;;;;;;;;;;5004214;28;20050;-72
2023/07/30 01:09:32;;;;;;;30.45;7.07;;;;;;;;;;4993534;28;20129;-73
2023/07/30 01:11:58;;;;;;;21.25;6.95;;;;;;;;;;5006807;28;20137;-72
2023/07/30 01:14:26;;;;;;;25.58;7.35;;;;;;;;;;5005896;28;20045;-73
2023/07/30 01:16:58;;;;;;;26.30;7.30;;;;;;;;;;4998730;28;20049;-73
2023/07/30 01:19:24;;;;;;;20.85;6.38;;;;;;;;;;5008385;28;20129;-73
2023/07/30 01:21:50;;;;;;;21.27;6.07;;;;;;;;;;5008680;28;20134;-74
2023/07/30 01:24:16;;;;;;;22.95;6.70;;;;;;;;;;5000530;28;20395;-75
2023/07/30 01:26:46;;;;;;;28.23;7.40;;;;;;;;;;5011372;28;20053;-75
2023/07/30 01:29:19;;;;;;;19.17;5.97;;;;;;;;;;5007528;28;20176;-74
2023/07/30 01:31:45;;;;;;;;;;;;;;;;;;5007844;28;20053;-74
2023/07/30 01:34:12;;;;;;;24.85;6.70;;;;;;;;;;5009062;28;19921;-74
2023/07/30 01:36:39;;;;;;;28.83;6.90;;;;;;;;;;5009107;28;20060;-74
2023/07/30 01:39:05;;;;;;;25.98;7.03;;;;;;;;;;5010320;28;20041;-74
2023/07/30 01:41:31;;;;;;;27.35;7.60;;;;;;;;;;5009239;28;20049;-73
2023/07/30 01:43:57;;;;;;;23.48;6.65;;;;;;;;;;5008414;28;20127;-75
2023/07/30 01:46:23;;;;;;;28.95;6.93;;;;;;;;;;5007609;28;20408;-75
2023/07/30 01:48:49;;;;;;;22.38;6.80;;;;;;;;;;5006228;28;20054;-75
2023/07/30 01:51:15;;;;;;;26.05;7.25;;;;;;;;;;5004305;28;20042;-75
2023/07/30 01:53:41;;;;;;;25.23;7.05;;;;;;;;;;4997165;28;20049;-74
2023/07/30 01:56:07;;;;;;;19.98;6.55;;;;;;;;;;4995284;28;20049;-74
2023/07/30 01:58:33;;;;;;;23.33;6.78;;;;;;;;;;5007419;28;20046;-74
2023/07/30 02:00:59;;;;;;;25.60;6.57;;;;;;;;;;5001508;28;20505;-74
2023/07/30 02:03:25;;;;;;;24.58;7.10;;;;;;;;;;4999489;28;20046;-75
2023/07/30 02:05:51;;;;;;;13.75;4.93;;;;;;;;;;5009377;28;20129;-75
2023/07/30 02:08:17;;;;;;;18.27;4.78;;;;;;;;;;5010274;28;20049;-74
2023/07/30 02:10:43;;;;;;;15.40;4.13;;;;;;;;;;5006392;28;20046;-75
2023/07/30 02:13:09;;;;;;;11.07;3.55;;;;;;;;;;5006067;28;20054;-75
2023/07/30 02:15:40;;;;;;;12.98;3.45;;;;;;;;;;5004717;28;20038;-75
2023/07/30 02:18:06;;;;;;;10.27;3.78;;;;;;;;;;5009042;28;20050;-75
2023/07/30 02:20:32;;;;;;;14.75;3.40;;;;;;;;;;5003054;28;20049;-74
2023/07/30 02:22:58;;;;;;;10.75;3.05;;;;;;;;;;5009399;28;20462;-74
2023/07/30 02:25:24;;;;;;;8.65;3.03;;;;;;;;;;5012889;28;20061;-74
2023/07/30 02:27:50;;;;;;;10.10;3.25;;;;;;;;;;5004291;28;20089;-74
2023/07/30 02:30:16;;;;;;;11.35;3.38;;;;;;;;;;5010641;28;20494;-75
2023/07/30 02:32:42;;;;;;;7.20;2.72;;;;;;;;;;5012636;28;20081;-74
2023/07/30 02:35:08;;;;;;;13.43;2.80;;;;;;;;;;5013600;28;20057;-75
2023/07/30 02:37:34;;;;;;;12.02;3.20;;;;;;;;;;5012368;28;20042;-75
2023/07/30 02:40:01;;;;;;;8.65;3.35;;;;;;;;;;5011868;28;20053;-75
2023/07/30 02:42:27;;;;;;;10.15;2.70;;;;;;;;;;5011781;28;20057;-74
2023/07/30 02:44:53;;;;;;;9.00;2.65;;;;;;;;;;5015280;28;20382;-75
2023/07/30 02:47:19;;;;;;;8.60;2.67;;;;;;;;;;5012057;28;20489;-75
2023/07/30 02:49:45;;;;;;;7.25;2.47;;;;;;;;;;5012328;28;20517;-75
2023/07/30 02:52:11;;;;;;;10.55;2.67;;;;;;;;;;4999347;28;20070;-75
2023/07/30 02:54:37;;;;;;;7.32;2.60;;;;;;;;;;5000049;28;20050;-75
2023/07/30 02:57:03;;;;;;;7.57;2.55;;;;;;;;;;5005540;28;20046;-75
2023/07/30 02:59:29;;;;;;;8.60;2.20;;;;;;;;;;4998962;28;20464;-75
2023/07/30 03:01:55;;;;;;;12.15;2.95;;;;;;;;;;5000377;28;20494;-75
2023/07/30 03:04:21;;;;;;;11.30;2.80;;;;;;;;;;4999504;28;20081;-75
2023/07/30 03:06:47;;;;;;;10.30;2.63;;;;;;;;;;5012399;28;20482;-75
2023/07/30 03:09:13;;;;;;;11.43;2.60;;;;;;;;;;5010375;28;20050;-75
2023/07/30 03:11:39;;;;;;;11.93;2.92;;;;;;;;;;5001936;28;20532;-74
2023/07/30 03:14:05;;;;;;;10.85;2.45;;;;;;;;;;5008391;28;20073;-74
2023/07/30 03:16:31;;;;;;;9.18;2.92;;;;;;;;;;5003685;28;20088;-74
2023/07/30 03:18:57;;;;;;;7.88;2.58;;;;;;;;;;5007919;28;20052;-74
2023/07/30 03:21:23;;;;;;;13.15;3.13;;;;;;;;;;5001565;28;20077;-75
2023/07/30 03:23:49;;;;;;;10.57;3.13;;;;;;;;;;5007557;28;20108;-75
2023/07/30 03:26:16;;;;;;;12.40;3.40;;;;;;;;;;5014468;28;20042;-75
2023/07/30 03:28:42;;;;;;;10.52;3.00;;;;;;;;;;5014937;28;20057;-74
2023/07/30 03:31:08;;;;;;;13.77;3.92;;;;;;;;;;4995516;28;20050;-75
2023/07/30 03:33:34;;;;;;;13.43;3.53;;;;;;;;;;5018730;28;20069;-74
2023/07/30 03:36:00;;;;;;;11.45;3.28;;;;;;;;;;4992751;28;20046;-74
2023/07/30 03:38:26;;;;;;;10.48;3.30;;;;;;;;;;5011570;28;20061;-74
2023/07/30 03:40:52;;;;;;;12.10;3.50;;;;;;;;;;5014969;28;20112;-75
2023/07/30 03:43:18;;;;;;;11.70;3.53;;;;;;;;;;5001294;28;20063;-75
2023/07/30 03:45:44;;;;;;;13.68;3.55;;;;;;;;;;5014546;28;20064;-75
2023/07/30 03:48:10;;;;;;;11.60;3.25;;;;;;;;;;5002787;28;20049;-74
2023/07/30 03:50:36;;;;;;;14.68;4.13;;;;;;;;;;4995986;28;20077;-74
2023/07/30 03:53:02;;;;;;;12.93;3.70;;;;;;;;;;4989046;28;20564;-75
2023/07/30 03:55:29;;;;;;;13.35;3.35;;;;;;;;;;4992105;28;20124;-74
2023/07/30 03:57:55;;;;;;;10.25;3.50;;;;;;;;;;5012213;28;20046;-74
2023/07/30 04:00:21;;;;;;;13.50;3.47;;;;;;;;;;5010374;28;20042;-75
2023/07/30 04:02:48;;;;;;;14.20;3.47;;;;;;;;;;5011741;28;20046;-75
2023/07/30 04:05:14;;;;;;;14.55;3.92;;;;;;;;;;5005953;28;20229;-75
2023/07/30 04:07:40;;;;;;;12.15;3.70;;;;;;;;;;5001331;28;20089;-74
2023/07/30 04:10:06;;;;;;;12.13;3.88;;;;;;;;;;4985994;28;20389;-74
2023/07/30 04:12:32;;;;;;;9.38;3.42;;;;;;;;;;4998744;28;20041;-74
2023/07/30 04:14:58;;;;;;;14.75;4.07;;;;;;;;;;4994606;28;20485;-74
2023/07/30 04:17:24;;;;;;;18.08;4.03;;;;;;;;;;4983955;28;20060;-75
2023/07/30 04:19:50;;;;;;;13.73;4.13;;;;;;;;;;4981847;28;20044;-74
2023/07/30 04:22:16;;;;;;;16.23;4.30;;;;;;;;;;4999197;28;20033;-74
2023/07/30 04:24:42;;;;;;;11.77;3.88;;;;;;;;;;4992967;28;20116;-75
2023/07/30 04:27:08;;;;;;;12.73;3.70;;;;;;;;;;4954354;28;1123602;-75
2023/07/30 04:29:34;;;;;;;10.77;3.80;;;;;;;;;;5000565;28;20060;-74
2023/07/30 04:32:00;;;;;;;11.65;3.90;;;;;;;;;;5006316;28;20034;-74
2023/07/30 04:34:26;;;;;;;14.57;3.80;;;;;;;;;;4998444;28;20041;-74
2023/07/30 04:36:52;;;;;;;12.20;3.72;;;;;;;;;;4996285;28;20167;-74
2023/07/30 04:39:19;;;;;;;12.38;4.05;;;;;;;;;;4998130;28;20100;-74
2023/07/30 04:41:45;;;;;;;13.75;4.03;;;;;;;;;;4999739;28;20049;-74
2023/07/30 04:44:11;;;;;;;16.95;4.07;;;;;;;;;;5003255;28;20551;-74
2023/07/30 04:46:37;;;;;;;11.75;3.47;;;;;;;;;;5005474;28;20050;-74
2023/07/30 04:49:04;;;;;;;14.85;3.95;;;;;;;;;;5006965;28;20053;-74
2023/07/30 04:51:30;;;;;;;12.15;4.45;;;;;;;;;;5005599;28;20050;-74
2023/07/30 04:53:56;;;;;;;11.57;4.78;;;;;;;;;;5004185;28;20121;-74
2023/07/30 04:56:22;;;;;;;13.02;3.50;;;;;;;;;;5004534;28;20046;-74
2023/07/30 04:58:48;;;;;;;14.25;4.30;;;;;;;;;;5001270;28;20057;-73
2023/07/30 05:01:14;;;;;;;14.35;3.80;;;;;;;;;;5008406;28;20041;-74
2023/07/30 05:03:40;;;;;;;10.50;3.25;;;;;;;;;;5008987;28;20046;-74
2023/07/30 05:06:06;;;;;;;12.77;3.25;;;;;;;;;;5010375;28;20100;-74
2023/07/30 05:08:32;;;;;;;11.50;3.53;;;;;;;;;;5007846;28;20053;-74
2023/07/30 05:10:58;;;;;;;13.02;3.95;;;;;;;;;;5008231;28;20044;-74
2023/07/30 05:13:24;;;;;;;11.20;3.30;;;;;;;;;;5005701;28;20042;-74
2023/07/30 05:15:50;;;;;;;14.45;3.85;;;;;;;;;;5002738;28;20073;-74
2023/07/30 05:18:16;;;;;;;13.43;4.10;;;;;;;;;;5006992;28;20050;-74
2023/07/30 05:20:42;;;;;;;11.65;3.65;;;;;;;;;;5000552;28;20046;-74
2023/07/30 05:23:09;;;;;;;10.60;3.35;;;;;;;;;;5007871;28;20536;-74
2023/07/30 05:25:35;;;;;;;16.33;4.30;;;;;;;;;;5010476;28;20092;-73
2023/07/30 05:28:01;;;;;;;13.68;3.95;;;;;;;;;;5006853;28;20057;-74
2023/07/30 05:30:27;;;;;;;10.90;3.50;;;;;;;;;;4975892;28;20051;-74
2023/07/30 05:32:53;;;;;;;11.90;3.80;;;;;;;;;;4986824;28;20085;-73
2023/07/30 05:35:19;;;;;;;14.75;4.18;;;;;;;;;;4974308;28;20442;-74
2023/07/30 05:37:45;;;;;;;13.90;3.75;;;;;;;;;;4984947;28;20057;-73
2023/07/30 05:40:11;;;;;;;18.08;4.63;;;;;;;;;;4975751;28;20050;-74
2023/07/30 05:42:37;;;;;;;12.07;4.10;;;;;;;;;;4972290;28;20486;-73
2023/07/30 05:45:04;;;;;;;12.10;3.78;;;;;;;;;;4968292;28;20554;-73
2023/07/30 05:47:30;;;;;;;10.27;3.30;;;;;;;;;;4977220;28;20089;-73
2023/07/30 05:49:56;;;;;;;14.95;4.60;;;;;;;;;;4989924;28;20053;-73
2023/07/30 05:52:22;;;;;;;11.95;3.97;;;;;;;;;;4973433;28;20038;-74
2023/07/30 05:54:48;;;;;;;12.52;3.45;;;;;;;;;;4956712;28;20054;-73
2023/07/30 05:57:14;;;;;;;13.70;4.00;;;;;;;;;;4960202;28;20050;-74
2023/07/30 05:59:40;;;;;;;13.57;3.30;;;;;;;;;;4958349;28;20050;-73
2023/07/30 06:02:06;;;;;;;13.63;3.53;;;;;;;;;;4964860;28;20042;-74
2023/07/30 06:04:32;;;;;;;13.60;3.70;;;;;;;;;;4963917;28;20042;-73
2023/07/30 06:07:03;;;;;;;8.40;2.65;;;;;;;;;;4960731;28;20425;-73
2023/07/30 06:09:29;;;;;;;10.20;3.17;;;;;;;;;;4977815;28;20054;-73
2023/07/30 06:11:57;;;;;;;16.58;3.28;;;;;;;;;;4962851;28;20137;-73
2023/07/30 06:14:23;;;;;;;12.00;3.45;;;;;;;;;;4978716;28;20050;-73
2023/07/30 06:16:49;;;;;;;10.70;3.50;;;;;;;;;;4966135;28;20121;-73
2023/07/30 06:19:16;;;;;;;11.07;3.60;;;;;;;;;;4966071;28;20070;-73
2023/07/30 06:21:42;;;;;;;12.73;3.65;;;;;;;;;;4967718;28;20049;-73
2023/07/30 06:24:08;;;;;;;14.48;3.85;;;;;;;;;;4975677;28;20485;-73
2023/07/30 06:26:34;;;;;;;15.65;3.88;;;;;;;;;;4976846;28;20410;-73
2023/07/30 06:29:00;;;;;;;8.43;3.03;;;;;;;;;;4995311;28;20401;-73
2023/07/30 06:31:26;;;;;;;13.48;3.90;;;;;;;;;;5002992;28;20379;-73
2023/07/30 06:33:52;;;;;;;12.07;3.55;;;;;;;;;;4998614;28;20425;-73
2023/07/30 06:36:18;;;;;;;13.13;3.53;;;;;;;;;;4996363;28;20057;-73
2023/07/30 06:38:44;;;;;;;11.55;3.63;;;;;;;;;;4999392;28;20057;-73
2023/07/30 06:41:10;;;;;;;11.80;3.28;;;;;;;;;;4994424;28;20034;-73
2023/07/30 06:43:36;;;;;;;13.23;3.78;;;;;;;;;;5000847;28;20049;-73
2023/07/30 06:46:02;;;;;;;13.38;4.47;;;;;;;;;;4998274;28;20129;-73
2023/07/30 06:48:28;;;;;;;14.77;3.45;;;;;;;;;;5005439;28;20076;-73
2023/07/30 06:50:57;;;;;;;14.77;3.83;;;;;;;;;;4991070;28;20046;-74
2023/07/30 06:53:23;;;;;;;10.65;3.08;;;;;;;;;;5019199;28;20046;-73
2023/07/30 06:55:49;;;;;;;12.68;3.42;;;;;;;;;;5001494;28;20046;-73
2023/07/30 06:58:15;;;;;;;15.88;4.00;;;;;;;;;;4993311;28;20989;-73
2023/07/30 07:00:41;;;;;;;12.38;3.45;;;;;;;;;;5001449;28;20057;-74
2023/07/30 07:03:07;;;;;;;11.77;3.60;;;;;;;;;;5001454;28;20489;-75
2023/07/30 07:05:33;;;;;;;10.88;3.63;;;;;;;;;;4995243;28;20034;-75
2023/07/30 07:07:59;;;;;;;14.80;4.50;;;;;;;;;;5000161;28;20121;-75
2023/07/30 07:10:25;;;;;;;14.85;4.43;;;;;;;;;;4998639;28;20049;-74
2023/07/30 07:12:51;;;;;;;8.82;3.28;;;;;;;;;;4997539;28;20084;-74
2023/07/30 07:15:17;;;;;;;11.23;3.45;;;;;;;;;;4999583;28;20065;-74
2023/07/30 07:17:43;;;;;;;14.43;4.00;;;;;;;;;;5003937;28;21928;-74
2023/07/30 07:20:11;;;;;;;8.35;3.10;;;;;;;;;;5014098;28;20081;-74
2023/07/30 07:22:37;;;;;;;12.15;3.42;;;;;;;;;;5007291;28;20149;-74
2023/07/30 07:25:03;;;;;;;9.43;3.30;;;;;;;;;;5008932;28;20043;-75
2023/07/30 07:27:29;;;;;;;14.20;4.05;;;;;;;;;;5008094;28;20137;-75
2023/07/30 07:29:56;;;;;;;10.93;3.65;;;;;;;;;;4971714;28;20054;-75
2023/07/30 07:32:22;;;;;;;13.23;3.35;;;;;;;;;;4971846;28;20058;-75
2023/07/30 07:34:48;;;;;;;15.10;4.22;;;;;;;;;;4991133;28;20050;-74
2023/07/30 07:37:15;;;;;;;7.90;2.75;;;;;;;;;;4991451;28;20049;-75
2023/07/30 07:39:44;;;;;;;10.32;3.60;;;;;;;;;;4977094;28;20057;-75
2023/07/30 07:42:10;;;;;;;11.55;3.70;;;;;;;;;;4974788;28;20068;-74
2023/07/30 07:44:36;;;;;;;11.30;3.55;;;;;;;;;;4981935;28;20050;-75
2023/07/30 07:47:03;;;;;;;12.05;3.67;;;;;;;;;;4973330;28;20077;-75
2023/07/30 07:49:29;;;;;;;13.20;3.80;;;;;;;;;;4974465;28;20874;-74
2023/07/30 07:51:55;;;;;;;10.85;2.85;;;;;;;;;;4991949;28;20082;-75
2023/07/30 07:54:21;;;;;;;14.93;3.58;;;;;;;;;;4970188;28;20506;-74
2023/07/30 07:56:47;;;;;;;12.25;3.28;;;;;;;;;;4970916;28;20074;-73
2023/07/30 07:59:13;;;;;;;12.18;3.47;;;;;;;;;;4969349;28;20136;-73
2023/07/30 08:01:39;;;;;;;12.60;3.25;;;;;;;;;;4980897;28;20077;-74
2023/07/30 08:04:05;;;;;;;9.27;3.33;;;;;;;;;;4983201;28;20075;-75
2023/07/30 08:06:32;;;;;;;15.85;4.00;;;;;;;;;;4979148;28;20487;-72
2023/07/30 08:08:58;;;;;;;11.02;3.53;;;;;;;;;;4986514;28;20153;-74
2023/07/30 08:11:24;;;;;;;9.98;3.17;;;;;;;;;;4987184;28;20046;-73
2023/07/30 08:13:50;;;;;;;13.40;3.17;;;;;;;;;;4966132;28;20050;-74
2023/07/30 08:16:20;;;;;;;12.02;3.63;;;;;;;;;;4970763;28;20054;-73
2023/07/30 08:18:46;;;;;;;12.80;3.13;;;;;;;;;;4976395;28;20414;-74
2023/07/30 08:21:12;;;;;;;14.32;3.70;;;;;;;;;;4990603;28;20038;-72
2023/07/30 08:23:38;;;;;;;11.27;3.92;;;;;;;;;;4987915;28;20057;-73
2023/07/30 08:26:04;;;;;;;17.10;6.53;;;;;;;;;;4991417;28;20491;-72
2023/07/30 08:28:30;;;;;;;13.60;3.70;;;;;;;;;;4993656;28;20057;-72
2023/07/30 08:31:02;;;;;;;9.70;3.30;;;;;;;;;;5004645;28;20588;-71
2023/07/30 08:33:29;;;;;;;8.97;3.27;;;;;;;;;;5007690;28;20050;-72
2023/07/30 08:35:59;;;;;;;14.10;3.78;;;;;;;;;;5001352;28;20313;-74
2023/07/30 08:38:25;;;;;;;12.88;3.83;;;;;;;;;;5007755;28;20061;-74
2023/07/30 08:40:51;;;;;;;10.40;2.80;;;;;;;;;;5009875;28;20073;-74
2023/07/30 08:43:18;;;;;;;8.90;2.80;;;;;;;;;;5006994;28;20042;-74
2023/07/30 08:45:44;;;;;;;12.20;3.00;;;;;;;;;;5001219;28;20341;-74
2023/07/30 08:48:10;;;;;;;13.68;3.60;;;;;;;;;;5011423;28;20037;-73
2023/07/30 08:50:37;;;;;;;12.32;3.30;;;;;;;;;;5008383;28;20077;-73
2023/07/30 08:53:05;;;;;;;13.82;3.70;;;;;;;;;;4994201;28;20041;-74
2023/07/30 08:55:33;;;;;;;12.57;3.58;;;;;;;;;;5008782;28;20050;-73
2023/07/30 08:58:02;;;;;;;6.93;2.70;;;;;;;;;;4999308;28;20049;-73
2023/07/30 09:00:31;;;;;;;10.13;3.60;;;;;;;;;;5025149;28;20046;-73
2023/07/30 09:02:59;;;;;;;13.05;4.00;;;;;;;;;;5012241;28;20050;-74
2023/07/30 09:05:29;;;;;;;10.45;3.00;;;;;;;;;;5004506;28;20042;-73
2023/07/30 09:07:55;;;;;;;8.73;3.05;;;;;;;;;;5002743;28;20056;-73
2023/07/30 09:10:21;;;;;;;11.13;3.25;;;;;;;;;;4999215;28;20045;-75
2023/07/30 09:12:53;;;;;;;14.45;6.95;;;;;;;;;;5010619;28;20061;-74
2023/07/30 09:15:21;;;;;;;8.63;3.40;;;;;;;;;;5007643;28;20053;-74
2023/07/30 09:17:47;;;;;;;9.02;3.00;;;;;;;;;;5011289;28;20053;-72
2023/07/30 09:20:13;;;;;;;16.70;3.65;;;;;;;;;;5011912;28;20053;-72
2023/07/30 09:22:40;;;;;;;9.88;3.03;;;;;;;;;;5009839;28;20493;-73
2023/07/30 09:25:06;;;;;;;12.43;3.90;;;;;;;;;;5007878;28;20040;-73
2023/07/30 09:27:33;;;;;;;8.38;3.17;;;;;;;;;;5005334;28;20124;-73
2023/07/30 09:29:59;;;;;;;8.75;3.42;;;;;;;;;;5008989;28;20041;-73
2023/07/30 09:32:28;;;;;;;10.20;3.38;;;;;;;;;;5008724;28;20498;-73
2023/07/30 09:34:55;;;;;;;6.10;3.00;;;;;;;;;;5006898;28;20444;-72
2023/07/30 09:37:21;;;;;;;12.77;3.40;;;;;;;;;;5005940;28;22291;-73
2023/07/30 09:39:50;;;;;;;8.38;3.17;;;;;;;;;;5012488;28;20073;-73
2023/07/30 09:42:16;;;;;;;11.35;3.20;;;;;;;;;;5005556;28;20069;-73
2023/07/30 09:44:42;;;;;;;9.98;3.88;;;;;;;;;;5007822;28;20054;-73
2023/07/30 09:47:11;;;;;;;7.32;3.22;;;;;;;;;;5002260;28;20046;-73
2023/07/30 09:49:38;;;;;;;10.13;3.63;;;;;;;;;;5008425;28;20060;-73
2023/07/30 09:52:05;;;;;;;12.57;3.20;;;;;;;;;;5011151;28;20042;-72
2023/07/30 09:54:32;;;;;;;10.35;3.00;;;;;;;;;;5007450;28;20045;-74
2023/07/30 09:56:58;;;;;;;14.30;3.35;;;;;;;;;;5004201;28;20093;-73
2023/07/30 09:59:28;;;;;;;11.63;3.00;;;;;;;;;;5002775;28;20054;-73
2023/07/30 10:01:55;;;;;;;9.90;3.45;;;;;;;;;;5006491;28;20042;-73
2023/07/30 10:04:21;;;;;;;11.77;3.10;;;;;;;;;;5011168;28;20553;-72
2023/07/30 10:06:53;;;;;;;13.20;4.13;;;;;;;;;;5010088;28;20046;-72
2023/07/30 10:09:22;;;;;;;12.02;4.20;;;;;;;;;;5006374;28;20050;-72
2023/07/30 10:11:49;;;;;;;13.05;3.60;;;;;;;;;;4998692;28;20085;-72
2023/07/30 10:14:18;;;;;;;12.45;3.20;;;;;;;;;;4989796;28;20042;-73
2023/07/30 10:16:54;;;;;;;11.85;3.22;;;;;;;;;;5003516;28;20045;-73
2023/07/30 10:19:24;;;;;;;8.30;2.83;;;;;;;;;;5009825;28;20129;-72
2023/07/30 10:21:50;;;;;;;8.48;3.13;;;;;;;;;;5002533;28;20050;-74
2023/07/30 10:24:17;;;;;;;10.30;2.92;;;;;;;;;;5007285;28;20049;-74
2023/07/30 10:26:43;;;;;;;12.13;3.30;;;;;;;;;;5005100;28;20038;-74
2023/07/30 10:29:19;;;;;;;10.52;3.70;;;;;;;;;;5010881;28;20137;-74
2023/07/30 10:31:49;;;;;;;11.82;3.17;;;;;;;;;;5004454;28;20401;-74
2023/07/30 10:34:15;;;;;;;12.07;3.25;;;;;;;;;;5011042;28;20092;-73
2023/07/30 10:36:43;;;;;;;9.07;2.97;;;;;;;;;;5010264;28;20056;-74
2023/07/30 10:39:19;;;;;;;9.82;2.88;;;;;;;;;;5007712;28;20050;-73
2023/07/30 10:41:54;;;;;;;8.63;2.88;;;;;;;;;;5002934;28;20053;-74
2023/07/30 10:44:28;;;;;;;10.43;3.22;;;;;;;;;;5007089;28;20128;-74
2023/07/30 10:46:57;;;;;;;7.93;2.80;;;;;;;;;;5016724;28;20038;-74
2023/07/30 10:49:23;;;;;;;11.88;3.17;;;;;;;;;;5014415;28;20410;-73
2023/07/30 10:51:52;;;;;;;14.52;3.63;;;;;;;;;;5004214;28;20046;-73
2023/07/30 10:54:18;;;;;;;11.45;3.33;;;;;;;;;;5013620;28;20050;-74
2023/07/30 10:56:45;;;;;;;7.53;2.72;;;;;;;;;;5006448;28;20414;-74
2023/07/30 10:59:12;;;;;;;10.27;3.33;;;;;;;;;;5006161;28;20038;-73
2023/07/30 11:01:42;;;;;;;6.30;2.60;;;;;;;;;;5012535;28;20038;-74
2023/07/30 11:04:09;;;;;;;10.80;2.97;;;;;;;;;;5012113;28;20144;-74
2023/07/30 11:06:35;;;;;;;8.55;2.78;;;;;;;;;;5013145;28;20054;-74
2023/07/30 11:09:01;;;;;;;6.72;2.60;;;;;;;;;;5003061;28;20042;-73
2023/07/30 11:11:28;;;;;;;9.68;3.30;;;;;;;;;;5011044;28;20382;-74
2023/07/30 11:13:54;;;;;;;11.25;3.88;;;;;;;;;;5007905;28;20043;-74
2023/07/30 11:16:20;;;;;;;8.18;2.97;;;;;;;;;;5013225;28;20089;-74
2023/07/30 11:18:47;;;;;;;14.15;3.22;;;;;;;;;;5004544;28;20082;-74
2023/07/30 11:21:17;;;;;;;7.78;2.88;;;;;;;;;;4994949;28;20042;-73
2023/07/30 11:23:43;;;;;;;10.80;3.15;;;;;;;;;;4995876;28;20034;-74
2023/07/30 11:26:10;;;;;;;9.40;2.38;;;;;;;;;;5005055;28;20045;-74
2023/07/30 11:28:37;;;;;;;11.32;2.85;;;;;;;;;;5008709;28;20092;-74
2023/07/30 11:31:04;;;;;;;7.45;2.25;;;;;;;;;;5025145;28;20054;-74
2023/07/30 11:33:30;;;;;;;10.85;3.25;;;;;;;;;;5015183;28;20049;-74
2023/07/30 11:35:57;;;;;;;9.30;2.92;;;;;;;;;;5013356;28;20042;-74
2023/07/30 11:38:24;;;;;;;9.77;2.75;;;;;;;;;;5010653;28;20042;-74
2023/07/30 11:40:51;;;;;;;9.93;2.65;;;;;;;;;;5011459;28;20042;-74
2023/07/30 11:43:17;;;;;;;7.72;2.63;;;;;;;;;;5004881;28;20482;-74
2023/07/30 11:45:43;;;;;;;10.30;3.00;;;;;;;;;;5013067;28;20042;-72
2023/07/30 11:48:10;;;;;;;9.63;2.60;;;;;;;;;;5009871;28;20042;-72
2023/07/30 11:50:46;;;;;;;9.27;2.60;;;;;;;;;;5012988;28;20049;-72
2023/07/30 11:53:13;;;;;;;8.93;2.53;;;;;;;;;;4993112;28;20038;-73
2023/07/30 11:55:40;;;;;;;8.82;2.80;;;;;;;;;;5011077;28;20100;-73
2023/07/30 11:58:07;;;;;;;8.80;2.95;;;;;;;;;;5012246;28;20056;-72
2023/07/30 12:00:33;;;;;;;11.80;2.85;;;;;;;;;;5009902;28;20066;-73
2023/07/30 12:03:03;;;;;;;7.97;3.00;;;;;;;;;;5012620;28;20054;-73
2023/07/30 12:05:35;;;;;;;11.85;2.85;;;;;;;;;;5012026;28;20049;-73
2023/07/30 12:08:07;;;;;;;9.05;2.60;;;;;;;;;;5011027;28;20477;-74
2023/07/30 12:11:02;;;;;;;11.05;2.70;;;;;;;;;;5005723;28;20042;-74
2023/07/30 12:13:28;;;;;;;10.43;3.20;;;;;;;;;;5000021;28;20062;-73
2023/07/30 12:15:54;;;;;;;9.20;3.10;;;;;;;;;;5009821;28;20048;-73
2023/07/30 12:18:21;;;;;;;9.35;3.00;;;;;;;;;;5009845;28;20085;-74
2023/07/30 12:20:47;;;;;;;9.88;2.88;;;;;;;;;;5010128;28;20041;-74
2023/07/30 12:23:14;;;;;;;10.07;2.75;;;;;;;;;;5009949;28;20053;-74
2023/07/30 12:25:40;;;;;;;9.30;2.65;;;;;;;;;;5010914;28;20516;-74
2023/07/30 12:28:06;;;;;;;8.60;2.80;;;;;;;;;;5011628;28;20061;-74
2023/07/30 12:30:35;;;;;;;7.70;2.60;;;;;;;;;;5006663;28;20133;-74
2023/07/30 12:33:01;;;;;;;8.02;2.50;;;;;;;;;;5011780;28;20076;-73
2023/07/30 12:35:27;;;;;;;7.68;2.42;;;;;;;;;;5010942;28;20556;-74
2023/07/30 12:37:53;;;;;;;9.13;3.10;;;;;;;;;;5005677;28;20058;-74
2023/07/30 12:40:19;;;;;;;10.40;2.17;;;;;;;;;;5002766;28;20049;-72
2023/07/30 12:42:45;;;;;;;8.85;2.88;;;;;;;;;;5010597;28;20050;-72
2023/07/30 12:45:11;;;;;;;8.82;2.25;;;;;;;;;;5008312;28;20037;-72
2023/07/30 12:47:37;;;;;;;7.22;2.60;;;;;;;;;;4997922;28;20406;-71
2023/07/30 12:50:04;;;;;;;9.70;2.83;;;;;;;;;;5007654;28;20056;-74
2023/07/30 12:52:30;;;;;;;7.93;3.00;;;;;;;;;;5011302;28;20060;-73
2023/07/30 12:54:56;;;;;;;10.38;3.00;;;;;;;;;;5003264;28;20089;-72
2023/07/30 12:57:22;;;;;;;8.95;2.90;;;;;;;;;;5010541;28;20052;-73
2023/07/30 12:59:48;;;;;;;9.90;2.85;;;;;;;;;;5008788;28;20165;-73
2023/07/30 13:02:14;;;;;;;7.15;2.30;;;;;;;;;;5007708;28;20510;-73
2023/07/30 13:04:40;;;;;;;8.30;2.70;;;;;;;;;;5007480;28;20137;-74
2023/07/30 13:07:06;;;;;;;7.10;2.28;;;;;;;;;;5010094;28;20045;-73
2023/07/30 13:09:32;;;;;;;7.95;2.55;;;;;;;;;;5008328;28;20397;-72
2023/07/30 13:11:58;;;;;;;9.45;2.50;;;;;;;;;;5006603;28;20049;-73
2023/07/30 13:14:24;;;;;;;8.13;2.72;;;;;;;;;;5009903;28;20498;-73
2023/07/30 13:16:50;;;;;;;6.53;2.38;;;;;;;;;;5009216;28;20095;-73
2023/07/30 13:19:16;;;;;;;10.50;2.72;;;;;;;;;;5005081;28;20099;-73
2023/07/30 13:21:42;;;;;;;4.47;2.00;;;;;;;;;;5009824;28;20128;-73
2023/07/30 13:24:08;;;;;;;11.27;2.60;;;;;;;;;;5009814;28;20088;-73
2023/07/30 13:26:36;;;;;;;9.75;2.67;;;;;;;;;;5002123;28;20042;-73
2023/07/30 13:29:02;;;;;;;6.68;2.30;;;;;;;;;;5007734;28;20061;-73
2023/07/30 13:31:28;;;;;;;8.23;2.53;;;;;;;;;;5001136;28;20061;-73
2023/07/30 13:33:54;;;;;;;8.63;2.45;;;;;;;;;;5007390;28;20065;-73
2023/07/30 13:36:20;;;;;;;11.13;2.92;;;;;;;;;;5009398;28;20041;-74
2023/07/30 13:38:47;;;;;;;8.90;3.20;;;;;;;;;;5007371;28;20109;-73
2023/07/30 13:41:13;;;;;;;10.77;2.95;;;;;;;;;;5009958;28;20508;-74
2023/07/30 13:43:39;;;;;;;10.90;3.15;;;;;;;;;;5009031;28;20076;-74
2023/07/30 13:46:05;;;;;;;10.93;2.92;;;;;;;;;;5025021;28;20088;-74
2023/07/30 13:48:31;;;;;;;14.13;3.10;;;;;;;;;;4998386;28;20054;-73
2023/07/30 13:50:57;;;;;;;7.95;3.65;;;;;;;;;;5002809;28;20038;-73
2023/07/30 13:53:23;;;;;;;13.05;4.43;;;;;;;;;;5006090;28;20128;-73
2023/07/30 13:55:52;;;;;;;9.10;3.47;;;;;;;;;;5010799;28;20030;-73
2023/07/30 13:58:18;;;;;;;7.95;2.78;;;;;;;;;;5012844;28;20149;-73
2023/07/30 14:00:44;;;;;;;8.68;2.38;;;;;;;;;;5009794;28;20172;-74
2023/07/30 14:03:11;;;;;;;13.68;3.22;;;;;;;;;;5010089;28;20049;-73
2023/07/30 14:05:37;;;;;;;12.10;3.83;;;;;;;;;;5011640;28;20157;-73
2023/07/30 14:08:03;;;;;;;10.82;3.30;;;;;;;;;;5010681;28;20048;-74
2023/07/30 14:10:29;;;;;;;6.85;2.30;;;;;;;;;;5002827;28;20104;-76
2023/07/30 14:12:56;;;;;;;9.07;2.33;;;;;;;;;;5010546;28;20042;-76
2023/07/30 14:15:22;;;;;;;8.13;3.03;;;;;;;;;;5009506;28;20049;-75
2023/07/30 14:17:48;;;;;;;11.20;2.53;;;;;;;;;;5008941;28;20099;-75
2023/07/30 14:20:14;;;;;;;9.20;2.67;;;;;;;;;;5013982;28;20655;-76
2023/07/30 14:22:40;;;;;;;11.90;3.28;;;;;;;;;;5012898;28;20383;-75
2023/07/30 14:25:06;;;;;;;9.63;2.95;;;;;;;;;;5012975;28;20042;-75
2023/07/30 14:27:32;;;;;;;7.90;2.83;;;;;;;;;;5007637;28;20112;-75
2023/07/30 14:29:59;;;;;;;8.85;2.70;;;;;;;;;;4999418;28;20129;-75